Bitcoin Up or Down - May 8, 1:15AM-1:20AM ET
Down won
Total volume
$20,490
$74,452 in 24h
Trades
1,234
Unique wallets
625
Liquidity
$0
Latest YES mid
34¢
Latest NO mid
66¢
End date
2026-05-08
First seen
2026-05-08
last 05-08 05:20
YES price (mid)
last 60 days, hourly
YES holders
Cohort breakdown
who's buying — by wallet tier
SMI:
-12.9¢
(top1%: 15% YES on $5.4K
vs crowd: 28% YES on $17.8K)
By volume tier
| Tier | Wallets | YES buy | NO buy | Net bias |
|---|---|---|---|---|
| 🐬 Dolphin | 4 | $379 | $3.0K | $2.6K |
| 🐟 Fish | 43 | $1.1K | $5.0K | $3.8K |
| 🦐 Shrimp | 578 | $3.5K | $4.9K | $1.4K |
By P&L percentile
| Tier | Wallets | YES buy | NO buy | Net bias |
|---|---|---|---|---|
| 🎯 Top 1% | 32 | $815 | $4.5K | $3.7K |
| 🏆 Top 5% | 103 | $1.3K | $3.9K | $2.6K |
| ✅ Top 10% | 79 | $290 | $389 | $98 |
| Median | 113 | $250 | $588 | $338 |
| Below median | 156 | $347 | $567 | $220 |
| ⚠️ Bottom 10% | 61 | $310 | $205 | +$104 |
| 🔻 Bottom 5% | 71 | $1.3K | $1.5K | $246 |
| 💀 Bottom 1% | 10 | $400 | $1.1K | $664 |
| Wallet | Side | Net shares | Cost basis | Volume | Trades | Last activity |
|---|---|---|---|---|---|---|
| Soupy-Packaging 0x6b2e…437b | Down | +4,789 | $2,000 | $2,000 | 4 | 05-08 05:19 |
| Slow-Minute 0xdf0d…9f79 | Down | +2,500 | $2,475 | $2,475 | 2 | 05-08 05:19 |
| Proud-Lilac 0xa7d4…6ea5 | Up | +1,170 | $300 | $300 | 2 | 05-08 05:19 |
| Little-Fraction 0xcfb1…f694 | Down | +790 | $348 | $348 | 2 | 05-08 05:18 |
| Bland-Tomb 0x3611…6880 | Up | +772 | $100 | $100 | 1 | 05-08 05:19 |
| Long-Term-Siege 0xc5d5…6caa | Down | +755 | $600 | $600 | 4 | 05-08 05:19 |
| Svelte-Chicory 0x9412…0cd0 | Down | +669 | $202 | $202 | 9 | 05-08 05:19 |
| Vengeful-Utilization 0x652c…2af0 | Up | +631 | $160 | $160 | 2 | 05-08 05:19 |
| Unwieldy-Outlook 0xcde8…3e6f | Up | +493 | $30 | $30 | 2 | 05-08 05:19 |
| Frilly-Felony-Rule 0x1c4c…9f95 | Up | +482 | $38 | $38 | 1 | 05-08 05:19 |
| (anonymous) 0xe907…cff6 | Up | +471 | $79 | $104 | 16 | 05-08 05:19 |
| Pristine-Dictionary 0xd814…09d0 | Up | +445 | $60 | $60 | 1 | 05-08 05:19 |
| Vivid-Plain 0x5b67…1c47 | Down | +410 | $402 | $402 | 10 | 05-08 05:19 |
| Crushing-Contingency 0x5bc7…2415 | Down | +396 | $300 | $300 | 4 | 05-08 05:19 |
| Little-Fraction 0xcfb1…f694 | Up | +395 | $271 | $271 | 1 | 05-08 05:18 |
| Gleaming-Teenager 0x1a5c…154b | Up | +382 | $8 | $8 | 3 | 05-08 05:19 |
| Upset-Sight 0xe022…6603 | Down | +360 | $278 | $278 | 18 | 05-08 05:19 |
| Popular-Insurrection 0xeebd…ba30 | Down | +343 | $161 | $161 | 5 | 05-08 05:18 |
| Modest-Donut 0x1ec3…b9fb | Down | +309 | $306 | $306 | 1 | 05-08 05:19 |
| Agile-Editor 0x6e30…157f | Up | +306 | $113 | $113 | 24 | 05-08 05:15 |
| Lavish-Dirndl 0x1430…56f1 | Up | +300 | $6 | $6 | 1 | 05-08 05:19 |
| (anonymous) 0x45b4…e8a9 | Up | +300 | $3 | $3 | 1 | 05-08 05:19 |
| Knowing-Buy 0x7416…082b | Up | +300 | $3 | $3 | 1 | 05-08 05:20 |
| Novel-Morbid 0x4766…5a03 | Down | +300 | $219 | $219 | 15 | 05-08 05:19 |
| (anonymous) 0x75cc…3ce1 | Down | +294 | $218 | $218 | 4 | 05-08 05:19 |
| Monstrous-Dew 0x5b63…11a4 | Up | +284 | $12 | $12 | 2 | 05-08 05:19 |
| Proper-Left 0xf16a…47df | Up | +275 | $30 | $30 | 3 | 05-08 05:19 |
| Rowdy-Week 0xb5e2…59a4 | Up | +268 | $50 | $50 | 1 | 05-08 05:19 |
| Colorless-Camp 0x0748…92a1 | Up | +250 | $58 | $58 | 3 | 05-08 05:19 |
| Alive-Supermarket 0x927f…d215 | Down | +240 | $92 | $92 | 2 | 05-08 05:18 |
| Dearest-Discipline 0xe71c…79ae | Up | +232 | $181 | $181 | 2 | 05-08 05:19 |
| Monthly-Lollipop 0xa823…6215 | Down | +218 | $164 | $164 | 3 | 05-08 05:19 |
| Queasy-Thrift 0x02fe…a6f3 | Up | +215 | $108 | $108 | 2 | 05-08 05:19 |
| Black-Dream 0xeff1…a25c | Up | +210 | $37 | $37 | 7 | 05-08 05:20 |
| Flaky-Cash 0xc458…0a07 | Down | +210 | $202 | $202 | 1 | 05-08 05:19 |
| Failing-Growth 0x6608…9dd6 | Down | +200 | $195 | $195 | 2 | 05-08 05:19 |
| Gaseous-Mankind 0xdf08…d24a | Up | +198 | $8 | $8 | 4 | 05-08 05:19 |
| Mad-Plot 0x2709…20f5 | Down | +192 | $36 | $36 | 16 | 05-08 05:19 |
| Far-Gavel 0x684e…55d2 | Down | +192 | $36 | $36 | 7 | 05-08 05:19 |
| Frugal-Herb 0x32ec…645e | Down | +190 | $150 | $150 | 3 | 05-08 05:19 |
| Profitable-Disengagement 0x2528…b041 | Down | +189 | $140 | $140 | 1 | 05-08 05:19 |
| (anonymous) 0x5e2b…9101 | Down | +185 | $176 | $176 | 2 | 05-08 05:19 |
| Unfinished-Airfare 0xbf5f…09f8 | Down | +178 | $177 | $177 | 1 | 05-08 05:19 |
| Aromatic-Freedom 0xc547…7b30 | Down | +172 | $77 | $77 | 2 | 05-08 05:18 |
| Carefree-Media 0x39a7…3778 | Up | +159 | $110 | $110 | 2 | 05-08 05:19 |
| Extraneous-Barrier 0x3477…eb63 | Down | +157 | $155 | $155 | 1 | 05-08 05:19 |
| Questionable-Miter 0x7b55…8f95 | Down | +152 | $58 | $58 | 15 | 05-08 05:19 |
| Clean-Supermarket 0x9ea7…71f3 | Up | +152 | $5 | $5 | 1 | 05-08 05:19 |
| (anonymous) 0x4cb6…a793 | Down | +146 | $135 | $135 | 3 | 05-08 05:19 |
| Well-Off-Interject 0xd993…dee8 | Up | +145 | $100 | $100 | 1 | 05-08 05:18 |
| Immediate-Organizing 0xf910…5912 | Up | +143 | $100 | $100 | 1 | 05-08 05:18 |
| Foolhardy-Coincidence 0x6cf9…ed7c | Up | +142 | $126 | $126 | 1 | 05-08 05:19 |
| Humble-Outcome 0x9a1d…86d6 | Up | +141 | $103 | $103 | 3 | 05-08 05:18 |
| Honored-Steam 0x04f1…8438 | Up | +140 | $3 | $3 | 1 | 05-08 05:19 |
| Pricey-Maker 0x94f4…77a2 | Down | +135 | $103 | $103 | 4 | 05-08 05:19 |
| (anonymous) 0x3cc6…fb39 | Down | +134 | $100 | $100 | 3 | 05-08 05:19 |
| Husky-Fascia 0x3b5a…b293 | Up | +132 | $90 | $90 | 1 | 05-08 05:18 |
| Mad-Plot 0x2709…20f5 | Up | +130 | $24 | $24 | 7 | 05-08 05:19 |
| (anonymous) 0xc2e9…f977 | Down | +126 | $100 | $100 | 4 | 05-08 05:19 |
| Exalted-Mattress 0xa8cc…41a9 | Down | +124 | $67 | $67 | 3 | 05-08 05:19 |
| Time | Wallet | Outcome | Side | Size | Price | USD | Tx |
|---|---|---|---|---|---|---|---|
| 05-08 05:20:23 | Legitimate-Stand 0xf581…6099 | Down | SELL | 4 | 99¢ | $4 | 0x454385… |
| 05-08 05:20:23 | Evil-Daikon 0xd67a…a6ce | Down | SELL | 10 | 99¢ | $10 | 0x4ead1c… |
| 05-08 05:20:21 | Untried-Accusation 0x74ac…8e63 | Down | SELL | 3 | 99¢ | $3 | 0xeada1c… |
| 05-08 05:20:18 | Robust-Temp 0x36a9…f6fd | Down | SELL | 5 | 99¢ | $5 | 0x2e760b… |
| 05-08 05:20:16 | Shimmering-Nexus 0xe653…5c09 | Down | SELL | 68 | 99¢ | $67 | 0xbf8505… |
| 05-08 05:20:13 | Considerate-Mineral 0xa9f7…9c98 | Down | SELL | 6 | 99¢ | $6 | 0x6cb334… |
| 05-08 05:20:11 | Tight-Imagination 0xeb0c…7f48 | Down | SELL | 5 | 99¢ | $5 | 0xef2ac9… |
| 05-08 05:20:11 | Villainous-Sequel 0xb972…6c79 | Down | SELL | 16 | 99¢ | $16 | 0x72ac14… |
| 05-08 05:20:11 | (anonymous) 0xe907…cff6 | Down | SELL | 8 | 99¢ | $8 | 0x978b9e… |
| 05-08 05:20:11 | Villainous-Sequel 0xb972…6c79 | Down | SELL | 7 | 99¢ | $7 | 0x324367… |
| 05-08 05:20:09 | Bite-Sized-Boom 0x07be…485e | Up | BUY | 100 | 1¢ | $1 | 0x79405e… |
| 05-08 05:20:09 | Flat-Ounce 0x0a3e…e5c3 | Down | SELL | 24 | 99¢ | $24 | 0x608f54… |
| 05-08 05:20:09 | Automatic-Replication 0xc952…9d67 | Down | SELL | 17 | 99¢ | $16 | 0x23c3e2… |
| 05-08 05:20:09 | Weary-Discrimination 0xc6a8…4f4f | Down | SELL | 119 | 99¢ | $118 | 0xaafde6… |
| 05-08 05:20:06 | Weak-Orientation 0x10e5…2d36 | Down | SELL | 320 | 99¢ | $316 | 0x2d3c13… |
| 05-08 05:20:04 | Curvy-Ironclad 0x8428…b41f | Down | SELL | 50 | 99¢ | $49 | 0xc8b1d9… |
| 05-08 05:20:04 | Knowing-Buy 0x7416…082b | Up | BUY | 300 | 1¢ | $3 | 0x352244… |
| 05-08 05:20:04 | Black-Dream 0xeff1…a25c | Up | BUY | 30 | 1¢ | $0 | 0xd6108c… |
| 05-08 05:20:04 | Eager-Latitude 0x100b…3f1e | Down | SELL | 7 | 99¢ | $7 | 0x55ace7… |
| 05-08 05:20:04 | Wrathful-Minion 0x21e6…2bd9 | Down | SELL | 50 | 99¢ | $49 | 0x9b1875… |
| 05-08 05:20:02 | Black-Dream 0xeff1…a25c | Up | BUY | 30 | 1¢ | $0 | 0xfe4525… |
| 05-08 05:20:02 | Uncomfortable-Oatmeal 0xf307…e380 | Down | SELL | 19 | 99¢ | $19 | 0x8d01be… |
| 05-08 05:20:02 | Ready-Army 0xc227…d0c5 | Up | BUY | 37 | 1¢ | $0 | 0x5bbfd4… |
| 05-08 05:20:02 | Definite-Divan 0x8dc4…a929 | Down | SELL | 3 | 99¢ | $3 | 0xa0c7a6… |
| 05-08 05:20:00 | Cuddly-Mug 0x31c5…14f5 | Up | BUY | 100 | 1¢ | $1 | 0x1a3056… |
| 05-08 05:20:00 | Wrathful-Minion 0x21e6…2bd9 | Down | SELL | 0 | 99¢ | $0 | 0x84025f… |
| 05-08 05:20:00 | Impolite-Surfboard 0x55da…6946 | Down | SELL | 5 | 99¢ | $5 | 0xf22f5d… |
| 05-08 05:19:59 | (anonymous) 0x5244…1f95 | Down | SELL | 1 | 99¢ | $1 | 0x05e67c… |
| 05-08 05:19:59 | (anonymous) 0x5259…e41e | Down | SELL | 8 | 99¢ | $8 | 0xce9d3c… |
| 05-08 05:19:59 | (anonymous) 0x5244…1f95 | Down | SELL | 1 | 99¢ | $1 | 0x9041a6… |
| 05-08 05:19:59 | (anonymous) 0x5244…1f95 | Down | SELL | 1 | 99¢ | $1 | 0x8a70f5… |
| 05-08 05:19:59 | (anonymous) 0x0bcb…39bf | Down | SELL | 8 | 99¢ | $8 | 0xa0bbbf… |
| 05-08 05:19:59 | Insistent-Bunkhouse 0x6a26…5b66 | Up | BUY | 34 | 1¢ | $0 | 0x48be6f… |
| 05-08 05:19:59 | Calculating-Feedback 0xf6e2…de96 | Down | SELL | 36 | 99¢ | $36 | 0xc29566… |
| 05-08 05:19:59 | Curvy-Ironclad 0x8428…b41f | Down | SELL | 0 | 99¢ | $0 | 0xfe714c… |
| 05-08 05:19:59 | (anonymous) 0x47db…ec59 | Down | SELL | 8 | 99¢ | $8 | 0x44a64e… |
| 05-08 05:19:59 | Mad-Quail 0x8054…925e | Down | SELL | 14 | 99¢ | $14 | 0x6d9e37… |
| 05-08 05:19:59 | (anonymous) 0x45b4…e8a9 | Up | BUY | 300 | 1¢ | $3 | 0xa18677… |
| 05-08 05:19:57 | Ready-Army 0xc227…d0c5 | Up | BUY | 58 | 1¢ | $1 | 0x928d01… |
| 05-08 05:19:57 | Starry-Macrame 0xa3ab…727b | Down | BUY | 5 | 98¢ | $5 | 0x03d878… |
| 05-08 05:19:57 | Vengeful-Valuable 0x562a…2ad4 | Down | BUY | 2 | 99¢ | $2 | 0x8b8338… |
| 05-08 05:19:57 | Unfinished-Airfare 0xbf5f…09f8 | Down | BUY | 178 | 99¢ | $177 | 0x80c59e… |
| 05-08 05:19:57 | Equal-Renaissance 0x1c4e…4150 | Down | BUY | 10 | 99¢ | $10 | 0x125642… |
| 05-08 05:19:57 | Gaseous-Mankind 0xdf08…d24a | Up | BUY | 78 | 3¢ | $2 | 0xa33042… |
| 05-08 05:19:57 | Original-Abbreviation 0x9710…04e5 | Down | BUY | 86 | 98¢ | $85 | 0xb0e741… |
| 05-08 05:19:57 | Tough-Accelerant 0xe4cc…197a | Down | BUY | 5 | 99¢ | $5 | 0x04b137… |
| 05-08 05:19:57 | Shady-Marksman-Site 0x3dc7…cff8 | Down | SELL | 5 | 98¢ | $5 | 0xd069b7… |
| 05-08 05:19:57 | Vigorous-Superiority 0x8b41…de3e | Up | SELL | 1 | 2¢ | $0 | 0x3d92b3… |
| 05-08 05:19:57 | Equal-Renaissance 0x1c4e…4150 | Down | BUY | 10 | 99¢ | $10 | 0x2b9ed9… |
| 05-08 05:19:57 | Slow-Minute 0xdf0d…9f79 | Down | BUY | 1,191 | 99¢ | $1,179 | 0xd0f92d… |
| 05-08 05:19:57 | Angry-Suede 0x8692…fbac | Down | BUY | 5 | 99¢ | $5 | 0x6d09ad… |
| 05-08 05:19:57 | Unconscious-Afterthought 0x40c5…4044 | Down | BUY | 10 | 98¢ | $10 | 0x0d5245… |
| 05-08 05:19:57 | Snoopy-Puggle 0xf94e…72ec | Down | BUY | 27 | 99¢ | $27 | 0x336d2e… |
| 05-08 05:19:57 | Slow-Minute 0xdf0d…9f79 | Down | BUY | 1,309 | 99¢ | $1,296 | 0xeec9d4… |
| 05-08 05:19:57 | Dutiful-Desert 0x4962…f1b2 | Up | SELL | 127 | 2¢ | $3 | 0xdc3172… |
| 05-08 05:19:57 | Angry-Suede 0x8692…fbac | Down | BUY | 5 | 99¢ | $5 | 0x40ae30… |
| 05-08 05:19:57 | Cheerful-Nuke 0x7b39…a580 | Down | BUY | 1 | 99¢ | $1 | 0xc4b945… |
| 05-08 05:19:57 | Helpful-Ping 0xae3b…38b5 | Down | BUY | 10 | 98¢ | $10 | 0xad4007… |
| 05-08 05:19:57 | (anonymous) 0xdfc8…ad75 | Down | BUY | 2 | 99¢ | $2 | 0xfc5e00… |
| 05-08 05:19:57 | Angry-Suede 0x8692…fbac | Down | BUY | 5 | 98¢ | $5 | 0x9158d9… |
| 05-08 05:19:57 | Vengeful-Valuable 0x562a…2ad4 | Down | BUY | 2 | 99¢ | $2 | 0xae1ea4… |
| 05-08 05:19:57 | Grubby-Min 0x5ca0…fc36 | Down | BUY | 10 | 99¢ | $10 | 0x257aa6… |
| 05-08 05:19:57 | Insistent-Bunkhouse 0x6a26…5b66 | Up | BUY | 34 | 3¢ | $1 | 0x2e652d… |
| 05-08 05:19:57 | Oval-Yoyo 0xbdcc…0558 | Down | BUY | 20 | 99¢ | $20 | 0x9f8f4c… |
| 05-08 05:19:57 | Thunderous-Strategy 0xa56f…ad75 | Down | BUY | 10 | 98¢ | $10 | 0x632f76… |
| 05-08 05:19:57 | Passionate-Entrance 0x469c…113a | Up | BUY | 33 | 3¢ | $1 | 0x840378… |
| 05-08 05:19:57 | Arid-Heir 0x20b0…bbae | Down | BUY | 50 | 99¢ | $50 | 0xb565b9… |
| 05-08 05:19:57 | Impolite-Surfboard 0x55da…6946 | Down | BUY | 5 | 98¢ | $5 | 0xfafcfc… |
| 05-08 05:19:57 | Palatable-Patent 0x0c7c…e4cb | Down | BUY | 2 | 98¢ | $2 | 0x74dff8… |
| 05-08 05:19:57 | Reliable-Favorite 0xc6b8…c763 | Down | BUY | 15 | 98¢ | $15 | 0x954364… |
| 05-08 05:19:57 | Affectionate-Voting 0x0c07…2894 | Up | BUY | 14 | 3¢ | $0 | 0xff7395… |
| 05-08 05:19:55 | Homely-Beverage 0x75ef…45f6 | Down | BUY | 2 | 97¢ | $2 | 0xb9bef7… |
| 05-08 05:19:55 | Deadly-Blast 0xc194…8115 | Down | BUY | 10 | 96¢ | $10 | 0x6b0fca… |
| 05-08 05:19:55 | Proper-Left 0xf16a…47df | Up | BUY | 221 | 2¢ | $5 | 0xbc6fab… |
| 05-08 05:19:55 | Hopeful-Harpsichord 0x004c…ab0c | Down | BUY | 7 | 99¢ | $7 | 0xc6aa8c… |
| 05-08 05:19:55 | Descriptive-Forebear 0x7978…20f6 | Down | BUY | 5 | 96¢ | $5 | 0x1ff707… |
| 05-08 05:19:55 | Powerless-Passion 0x5384…e3b3 | Down | BUY | 5 | 99¢ | $5 | 0x0b9ecf… |
| 05-08 05:19:55 | Passionate-Airbag 0x6306…d101 | Up | SELL | 0 | 1¢ | $0 | 0x16ba62… |
| 05-08 05:19:55 | Impartial-Sorrow 0x9433…ecf2 | Up | SELL | 0 | 2¢ | $0 | 0x702e82… |
| 05-08 05:19:55 | Bleak-Country 0x4527…0974 | Down | BUY | 4 | 97¢ | $4 | 0xdc3823… |
| 05-08 05:19:55 | Anchored-Raiment 0x5074…a598 | Down | BUY | 20 | 96¢ | $19 | 0x0cc92d… |
| 05-08 05:19:55 | Same-Ceremony 0x1b51…19fa | Up | SELL | 0 | 1¢ | $0 | 0x8e2a9b… |
| 05-08 05:19:55 | Unkempt-Sandal 0xe786…ef9d | Down | SELL | 1 | 95¢ | $1 | 0xbc3164… |
| 05-08 05:19:55 | Jittery-Raspberry 0x742c…0eed | Down | BUY | 9 | 97¢ | $9 | 0x5c4f83… |
| 05-08 05:19:53 | Elastic-Meridian 0x3c03…00cc | Down | BUY | 5 | 99¢ | $5 | 0x571242… |
| 05-08 05:19:53 | Honest-Childbirth 0x6c0d…c0d7 | Down | BUY | 1 | 95¢ | $1 | 0x4e5a92… |
| 05-08 05:19:53 | Homely-Beverage 0x75ef…45f6 | Up | SELL | 2 | 1¢ | $0 | 0xa1e39c… |
| 05-08 05:19:53 | Accomplished-Default 0xa8d8…541b | Down | BUY | 1 | 99¢ | $1 | 0xc3fc49… |
| 05-08 05:19:53 | (anonymous) 0x5359…14cd | Up | BUY | 60 | 5¢ | $3 | 0x2a17b0… |
| 05-08 05:19:53 | Flamboyant-Harm 0xd9db…48a1 | Up | BUY | 5 | 2¢ | $0 | 0x7287e5… |
| 05-08 05:19:53 | Grateful-Producer 0x86a5…34f9 | Up | SELL | 185 | 1¢ | $2 | 0x55fa09… |
| 05-08 05:19:53 | Infatuated-Granny 0x6e51…2f65 | Down | BUY | 5 | 98¢ | $5 | 0xfe20ca… |
| 05-08 05:19:53 | Fat-Deployment 0x032b…603d | Down | BUY | 12 | 95¢ | $12 | 0x8fcf93… |
| 05-08 05:19:53 | Thin-Abrogation 0xc5b7…30fe | Down | BUY | 6 | 99¢ | $6 | 0xfd41a8… |
| 05-08 05:19:53 | Second-Hand-Sage 0x1b9c…68d3 | Down | BUY | 10 | 99¢ | $10 | 0x667ae3… |
| 05-08 05:19:53 | (anonymous) 0x8efb…37f7 | Down | BUY | 1 | 95¢ | $1 | 0xcf0b5d… |
| 05-08 05:19:53 | Infatuated-Diction 0xde61…1318 | Up | BUY | 20 | 5¢ | $1 | 0x79b4f9… |
| 05-08 05:19:53 | Overjoyed-Argument 0xc0e9…9934 | Down | BUY | 10 | 96¢ | $10 | 0x82399b… |
| 05-08 05:19:53 | Uncommon-Sunroom 0x0b6b…29da | Down | SELL | 22 | 94¢ | $20 | 0x8ed1b7… |
| 05-08 05:19:53 | (anonymous) 0x2cf8…31bc | Up | BUY | 25 | 4¢ | $1 | 0x1dcbf1… |